Terminal Aerodrome Forecast
Issued by NWS

Home | Current Version | Previous Version | Text Only | Print | Product List | Glossary On
Versions: 1 2 3 4 5 6 7 8 9 10 11 12 13 14
000
FTUS46 KPDT 161700
TAFRDM
TAF
KRDM 161736Z 1618/1718 VRB04KT P6SM BKN100
     FM162100 34011KT P6SM BKN040 OVC070
     FM170400 VRB05KT P6SM SCT060 SCT100
     FM171200 17005KT P6SM BKN100
     FM171700 30009KT P6SM BKN040 OVC060=

USA.gov is the U.S. government's official web portal to all federal, state and local government web resources and services.